Time;durP1;ratioP1;P1;durP2;ratioP2;P2;SDS_P1;SDS_P2;PMS_P1;PMS_P2;Temp;Humidity;BMP_temperature;BMP_pressure;BME280_temperature;BME280_humidity;BME280_pressure;Samples;Min_cycle;Max_cycle;Signal;HPM_P1;HPM_P2
2022/07/06 00:00:24;;;;;;;;;;;;;;;18.26;48.83;97436.16;30001;983;1875;-58
2022/07/06 00:00:55;;;;;;;;;;;;;;;18.25;49.08;97435.38;30001;983;1880;-57
2022/07/06 00:01:26;;;;;;;;;;;;;;;18.22;49.70;97437.97;30001;982;1884;-57
2022/07/06 00:01:57;;;;;;;;;;;;;;;18.18;49.63;97434.25;30001;982;1880;-57
2022/07/06 00:02:27;;;;;;;;;;;;;;;18.15;49.98;97434.91;30001;982;1885;-56
2022/07/06 00:02:58;;;;;;;;;;;;;;;18.12;50.40;97435.56;30001;982;1867;-57
2022/07/06 00:03:29;;;;;;;;;;;;;;;18.08;49.92;97441.72;30001;982;1876;-57
2022/07/06 00:04:03;;;;;;;;;;;;;;;18.08;50.12;97436.22;30001;983;1879;-57
2022/07/06 00:04:34;;;;;;;;;;;;;;;18.08;50.10;97432.66;30001;983;1884;-57
2022/07/06 00:05:05;;;;;;;;;;;;;;;18.07;50.24;97433.78;30001;983;1866;-56
2022/07/06 00:05:37;;;;;;;;;;;;;;;18.04;50.26;97434.44;30001;983;1875;-57
2022/07/06 00:06:08;;;;;;;;;;;;;;;18.04;50.45;97435.25;30001;977;1899;-57
2022/07/06 00:06:39;;;;;;;;;;;;;;;18.06;50.07;97427.50;30001;983;1884;-57
2022/07/06 00:07:11;;;;;;;;;;;;;;;18.06;50.06;97432.19;30001;983;1880;-57
2022/07/06 00:07:41;;;;;;;;;;;;;;;18.03;49.81;97433.63;30001;983;1871;-56
2022/07/06 00:08:12;;;;;;;;;;;;;;;18.04;49.96;97431.69;30001;983;1871;-57
2022/07/06 00:08:44;;;;;;;;;;;;;;;18.03;49.93;97430.91;30001;983;1884;-57
2022/07/06 00:09:14;;;;;;;;;;;;;;;18.03;50.12;97432.84;30001;982;1880;-57
2022/07/06 00:09:45;;;;;;;;;;;;;;;18.01;49.96;97433.19;30001;982;1885;-57
2022/07/06 00:10:17;;;;;;;;;;;;;;;18.00;50.36;97434.31;30001;982;1867;-58
2022/07/06 00:10:48;;;;;;;;;;;;;;;18.00;50.29;97428.84;30001;982;1876;-56
2022/07/06 00:11:18;;;;;;;;;;;;;;;18.00;49.96;97439.81;30001;982;1880;-57
2022/07/06 00:11:50;;;;;;;;;;;;;;;18.02;49.82;97426.53;30001;983;1884;-57
2022/07/06 00:12:21;;;;;;;;;;;;;;;18.01;49.73;97430.44;30001;983;1880;-56
2022/07/06 00:12:52;;;;;;;;;;;;;;;18.00;49.82;97428.84;30001;983;1884;-57
2022/07/06 00:13:23;;;;;;;;;;;;;;;18.01;50.05;97430.44;30001;983;1880;-57
2022/07/06 00:13:59;;;;;;;;;;;;;;;18.00;50.21;97428.84;30001;983;1884;-57
2022/07/06 00:14:29;;;;;;;;;;;;;;;17.98;50.05;97431.09;30001;983;1880;-57
2022/07/06 00:15:00;;;;;;;;;;;;;;;17.95;50.12;97431.75;30001;983;1884;-57
2022/07/06 00:15:31;;;;;;;;;;;;;;;17.96;50.13;97438.84;30001;983;1867;-57
2022/07/06 00:16:02;;;;;;;;;;;;;;;17.94;50.37;97432.06;30002;784;1015;-56
2022/07/06 00:16:33;;;;;;;;;;;;;;;17.93;50.45;97434.00;30001;982;1880;-56
2022/07/06 00:17:04;;;;;;;;;;;;;;;17.91;50.22;97441.78;30001;982;1871;-57
2022/07/06 00:17:35;;;;;;;;;;;;;;;17.89;50.33;97430.31;30001;982;1871;-56
2022/07/06 00:18:06;;;;;;;;;;;;;;;17.92;50.08;97429.66;30001;982;1885;-57
2022/07/06 00:18:37;;;;;;;;;;;;;;;17.93;49.92;97434.00;30001;982;1880;-57
2022/07/06 00:19:08;;;;;;;;;;;;;;;17.92;50.46;97426.91;30001;983;1884;-57
2022/07/06 00:19:39;;;;;;;;;;;;;;;17.91;50.55;97430.78;30001;983;1879;-56
2022/07/06 00:20:10;;;;;;;;;;;;;;;17.91;50.71;97430.78;30001;983;1884;-57
2022/07/06 00:20:41;;;;;;;;;;;;;;;17.92;50.33;97426.09;30001;983;1880;-56
2022/07/06 00:21:12;;;;;;;;;;;;;;;17.91;50.70;97432.72;30001;983;1885;-58
2022/07/06 00:21:44;;;;;;;;;;;;;;;17.88;51.13;97433.37;30001;983;1880;-57
2022/07/06 00:22:15;;;;;;;;;;;;;;;17.85;51.02;97432.09;30001;983;1811;-57
2022/07/06 00:22:46;;;;;;;;;;;;;;;17.83;50.98;97433.53;30001;983;1871;-56
2022/07/06 00:23:17;;;;;;;;;;;;;;;17.83;51.54;97439.03;30001;982;1884;-56
2022/07/06 00:23:51;;;;;;;;;;;;;;;17.82;51.40;97434.69;30001;966;1906;-58
2022/07/06 00:24:22;;;;;;;;;;;;;;;17.79;51.46;97429.84;30001;982;1884;-57
2022/07/06 00:24:53;;;;;;;;;;;;;;;17.81;51.36;97431.13;30001;982;1880;-57
2022/07/06 00:25:24;;;;;;;;;;;;;;;17.81;51.01;97430.31;30001;982;1885;-57
2022/07/06 00:25:56;;;;;;;;;;;;;;;17.80;51.51;97437.75;30001;982;1880;-59
2022/07/06 00:26:29;;;;;;;;;;;;;;;17.77;51.31;97427.41;30001;982;1885;-57
2022/07/06 00:27:01;;;;;;;;;;;;;;;17.80;51.16;97429.50;30001;983;1866;-57
2022/07/06 00:27:39;;;;;;;;;;;;;;;17.82;50.86;97431.94;30001;983;1875;-57
2022/07/06 00:28:10;;;;;;;;;;;;;;;17.82;50.86;97430.00;30001;983;1880;-56
2022/07/06 00:28:42;;;;;;;;;;;;;;;17.82;50.93;97432.75;30001;983;1884;-57
2022/07/06 00:29:14;;;;;;;;;;;;;;;17.86;50.89;97428.22;30001;983;1880;-56
2022/07/06 00:29:46;;;;;;;;;;;;;;;17.87;50.42;97432.56;30001;983;1867;-57
2022/07/06 00:30:17;;;;;;;;;;;;;;;17.85;50.97;97434.84;30001;983;1867;-58
2022/07/06 00:30:55;;;;;;;;;;;;;;;17.82;51.15;97437.44;30001;982;1867;-57
2022/07/06 00:31:26;;;;;;;;;;;;;;;17.79;51.22;97433.37;30001;982;1854;-58
2022/07/06 00:31:57;;;;;;;;;;;;;;;17.76;51.07;97428.56;30001;982;1867;-59
2022/07/06 00:32:29;;;;;;;;;;;;;;;17.75;51.13;97427.75;30001;982;1867;-57
2022/07/06 00:32:59;;;;;;;;;;;;;;;17.73;51.53;97434.69;30001;982;1880;-57
2022/07/06 00:33:30;;;;;;;;;;;;;;;17.70;51.54;97433.41;30001;982;1876;-57
2022/07/06 00:34:01;;;;;;;;;;;;;;;17.68;52.08;97437.59;30001;983;1879;-59
2022/07/06 00:34:35;;;;;;;;;;;;;;;17.66;52.13;97437.16;30001;983;1876;-57
2022/07/06 00:35:08;;;;;;;;;;;;;;;17.63;52.86;97437.75;30001;983;1880;-57
2022/07/06 00:35:38;;;;;;;;;;;;;;;17.61;52.15;97438.09;30001;983;1875;-57
2022/07/06 00:36:10;;;;;;;;;;;;;;;17.61;52.19;97443.56;30001;983;1880;-58
2022/07/06 00:36:41;;;;;;;;;;;;;;;17.63;51.74;97438.56;30001;983;1875;-57
2022/07/06 00:37:11;;;;;;;;;;;;;;;17.64;51.41;97431.16;30001;983;1867;-57
2022/07/06 00:37:42;;;;;;;;;;;;;;;17.63;51.60;97443.25;30001;983;1867;-57
2022/07/06 00:38:13;;;;;;;;;;;;;;;17.62;51.36;97438.91;30001;982;1880;-58
2022/07/06 00:38:44;;;;;;;;;;;;;;;17.61;51.28;97434.53;30001;982;1876;-57
2022/07/06 00:39:15;;;;;;;;;;;;;;;17.60;51.51;97435.66;30001;982;1880;-59
2022/07/06 00:39:46;;;;;;;;;;;;;;;17.59;51.82;97431.31;30001;982;1863;-57
2022/07/06 00:40:17;;;;;;;;;;;;;;;17.57;51.50;97434.38;30001;982;1869;-57
2022/07/06 00:40:48;;;;;;;;;;;;;;;17.55;53.29;97441.31;30001;982;1876;-58
2022/07/06 00:41:19;;;;;;;;;;;;;;;17.54;52.75;97436.97;30001;982;1880;-58
2022/07/06 00:41:50;;;;;;;;;;;;;;;17.53;52.69;97440.84;30001;983;1875;-57
2022/07/06 00:42:21;;;;;;;;;;;;;;;17.51;52.71;97448.59;30001;983;1866;-57
2022/07/06 00:42:52;;;;;;;;;;;;;;;17.49;52.33;97446.16;30001;983;1866;-58
2022/07/06 00:43:23;;;;;;;;;;;;;;;17.49;52.53;97437.12;30001;983;1880;-58
2022/07/06 00:43:55;;;;;;;;;;;;;;;17.50;52.27;97439.53;30001;983;1875;-57
2022/07/06 00:44:26;;;;;;;;;;;;;;;17.50;52.09;97438.72;30001;983;1880;-57
2022/07/06 00:44:57;;;;;;;;;;;;;;;17.50;52.46;97438.72;30001;983;1876;-57
2022/07/06 00:45:28;;;;;;;;;;;;;;;17.49;52.15;97442.59;30001;983;1880;-57
2022/07/06 00:45:59;;;;;;;;;;;;;;;17.47;52.12;97445.69;30001;982;1863;-59
2022/07/06 00:46:34;;;;;;;;;;;;;;;17.46;52.10;97437.78;30001;982;1871;-56
2022/07/06 00:47:07;;;;;;;;;;;;;;;17.45;52.40;97436.16;30001;982;1876;-56
2022/07/06 00:47:39;;;;;;;;;;;;;;;17.42;53.60;97443.09;30001;982;1880;-56
2022/07/06 00:48:13;;;;;;;;;;;;;;;17.39;53.12;97441.81;30001;982;1876;-57
2022/07/06 00:48:44;;;;;;;;;;;;;;;17.40;53.05;97437.94;30001;983;1879;-60
2022/07/06 00:50:13;;;;;;;;;;;;;;;17.40;52.58;97443.41;30001;983;1880;-58
2022/07/06 00:50:44;;;;;;;;;;;;;;;17.40;52.56;97435.19;30001;983;1862;-59
2022/07/06 00:51:16;;;;;;;;;;;;;;;17.39;52.89;97436.31;30001;983;1871;-58
2022/07/06 00:51:48;;;;;;;;;;;;;;;17.37;52.83;97438.56;30001;983;1782;-59
2022/07/06 00:52:20;;;;;;;;;;;;;;;17.37;52.49;97438.56;30001;983;1867;-57
2022/07/06 00:52:53;;;;;;;;;;;;;;;17.35;53.08;97435.34;30001;983;1867;-59
2022/07/06 00:53:24;;;;;;;;;;;;;;;17.34;52.84;97444.69;30001;982;1880;-59
2022/07/06 00:53:58;;;;;;;;;;;;;;;17.36;53.08;97439.69;30001;982;1876;-58
2022/07/06 00:54:31;;;;;;;;;;;;;;;17.36;52.94;97436.97;30001;982;1867;-57
2022/07/06 00:55:02;;;;;;;;;;;;;;;17.36;52.41;97436.97;30001;982;1867;-59
2022/07/06 00:55:35;;;;;;;;;;;;;;;17.36;52.10;97430.66;30001;982;1881;-58
2022/07/06 00:56:05;;;;;;;;;;;;;;;17.35;52.72;97434.53;30001;983;1875;-57
2022/07/06 00:56:37;;;;;;;;;;;;;;;17.33;52.57;97437.59;30001;983;1866;-57
2022/07/06 00:57:07;;;;;;;;;;;;;;;17.33;52.21;97432.13;30001;983;1866;-57
2022/07/06 00:57:39;;;;;;;;;;;;;;;17.31;52.86;97437.16;30001;983;1880;-59
2022/07/06 00:58:10;;;;;;;;;;;;;;;17.30;53.13;97432.78;30001;983;1876;-57
2022/07/06 00:58:41;;;;;;;;;;;;;;;17.29;52.90;97430.38;30001;983;1880;-58
2022/07/06 00:59:12;;;;;;;;;;;;;;;17.29;53.05;97436.66;30001;983;1875;-58
2022/07/06 00:59:43;;;;;;;;;;;;;;;17.27;52.96;97432.63;30001;983;1880;-57
2022/07/06 01:00:15;;;;;;;;;;;;;;;17.26;52.87;97436.50;30001;983;1876;-58
2022/07/06 01:00:46;;;;;;;;;;;;;;;17.24;53.18;97434.06;30001;983;1880;-57
2022/07/06 01:01:21;;;;;;;;;;;;;;;17.26;53.25;97431.00;30001;982;1876;-57
2022/07/06 01:01:52;;;;;;;;;;;;;;;17.25;53.02;97435.69;30001;982;1867;-58
2022/07/06 01:02:23;;;;;;;;;;;;;;;17.25;52.72;97435.69;30001;982;1867;-58
2022/07/06 01:02:55;;;;;;;;;;;;;;;17.25;52.69;97423.91;30001;982;1867;-59
2022/07/06 01:03:25;;;;;;;;;;;;;;;17.24;52.71;97428.59;30001;983;1866;-57
2022/07/06 01:03:56;;;;;;;;;;;;;;;17.25;52.92;97421.97;30001;983;1866;-58
2022/07/06 01:04:28;;;;;;;;;;;;;;;17.25;53.20;97432.94;30001;983;1866;-58
2022/07/06 01:04:59;;;;;;;;;;;;;;;17.23;53.55;97432.47;30001;983;1879;-58
2022/07/06 01:05:30;;;;;;;;;;;;;;;17.20;53.11;97435.84;30001;983;1875;-57
2022/07/06 01:06:01;;;;;;;;;;;;;;;17.20;53.34;97438.59;30001;983;1880;-58
2022/07/06 01:06:32;;;;;;;;;;;;;;;17.20;52.92;97426.81;30001;983;1875;-58
2022/07/06 01:07:03;;;;;;;;;;;;;;;17.19;53.14;97431.50;30001;957;1906;-58
2022/07/06 01:07:35;;;;;;;;;;;;;;;17.19;53.64;97436.97;30001;983;1876;-58
2022/07/06 01:08:06;;;;;;;;;;;;;;;17.15;53.57;97430.53;30001;983;1880;-58
2022/07/06 01:08:40;;;;;;;;;;;;;;;17.13;53.70;97432.78;30001;982;1863;-57
2022/07/06 01:09:11;;;;;;;;;;;;;;;17.14;53.29;97433.56;30001;982;1871;-58
2022/07/06 01:09:42;;;;;;;;;;;;;;;17.14;53.28;97428.09;30001;982;1876;-57
2022/07/06 01:10:14;;;;;;;;;;;;;;;17.12;53.43;97428.41;30001;982;1867;-59
2022/07/06 01:10:45;;;;;;;;;;;;;;;17.11;53.59;97434.22;30001;982;1868;-59
2022/07/06 01:11:19;;;;;;;;;;;;;;;17.08;53.28;97425.50;30001;983;1879;-59
2022/07/06 01:11:53;;;;;;;;;;;;;;;17.07;53.33;97429.38;30001;983;1783;-59
2022/07/06 01:12:25;;;;;;;;;;;;;;;17.06;54.12;97437.94;30001;983;1880;-57
2022/07/06 01:12:56;;;;;;;;;;;;;;;17.06;53.80;97435.19;30001;983;1875;-59
2022/07/06 01:13:30;;;;;;;;;;;;;;;17.05;53.57;97437.12;30001;983;1880;-58
2022/07/06 01:14:01;;;;;;;;;;;;;;;17.05;53.68;97430.81;30001;983;1862;-58
2022/07/06 01:14:33;;;;;;;;;;;;;;;17.02;54.97;97442.44;30001;983;1871;-59
2022/07/06 01:15:05;;;;;;;;;;;;;;;16.98;54.86;97436.00;30001;983;1875;-57
2022/07/06 01:15:36;;;;;;;;;;;;;;;16.95;54.63;97436.66;30001;983;1880;-59
2022/07/06 01:16:07;;;;;;;;;;;;;;;16.94;54.92;97441.31;30001;982;1876;-57
2022/07/06 01:16:38;;;;;;;;;;;;;;;16.93;54.55;97438.91;30001;982;1880;-57
2022/07/06 01:17:09;;;;;;;;;;;;;;;16.91;54.77;97435.66;30001;982;1876;-58
2022/07/06 01:17:42;;;;;;;;;;;;;;;16.91;54.73;97432.94;30001;982;1785;-58
2022/07/06 01:18:13;;;;;;;;;;;;;;;16.91;54.39;97435.66;30001;982;1876;-58
2022/07/06 01:18:43;;;;;;;;;;;;;;;16.90;54.64;97434.06;30001;983;1879;-58
2022/07/06 01:19:15;;;;;;;;;;;;;;;16.89;54.84;97437.91;30001;983;1862;-59
2022/07/06 01:19:47;;;;;;;;;;;;;;;16.89;54.29;97433.25;30001;983;1871;-58
2022/07/06 01:20:21;;;;;;;;;;;;;;;16.88;53.83;97428.09;30001;983;1875;-58
2022/07/06 01:21:04;;;;;;;;;;;;;;;16.88;54.24;97436.31;30001;983;1880;-58
2022/07/06 01:21:37;;;;;;;;;;;;;;;16.89;54.03;97433.25;30001;983;1875;-58
2022/07/06 01:22:09;;;;;;;;;;;;;;;16.90;54.34;97434.06;30001;983;1880;-57
2022/07/06 01:22:40;;;;;;;;;;;;;;;16.94;53.98;97440.50;30001;982;1876;-58
2022/07/06 01:23:10;;;;;;;;;;;;;;;16.93;53.82;97434.22;30001;982;1880;-58
2022/07/06 01:23:42;;;;;;;;;;;;;;;16.94;53.84;97429.53;30001;982;1876;-58
2022/07/06 01:24:13;;;;;;;;;;;;;;;16.94;53.67;97435.03;30001;982;1867;-58
2022/07/06 01:24:45;;;;;;;;;;;;;;;16.95;53.43;97431.16;30001;982;1867;-58
2022/07/06 01:25:17;;;;;;;;;;;;;;;16.96;53.31;97430.84;30001;982;1868;-58
2022/07/06 01:25:48;;;;;;;;;;;;;;;16.95;53.55;97431.16;30001;982;1867;-58
2022/07/06 01:26:20;;;;;;;;;;;;;;;16.94;54.28;97435.03;30001;983;1879;-58
2022/07/06 01:26:51;;;;;;;;;;;;;;;16.93;54.08;97427.94;30001;983;1876;-58
2022/07/06 01:27:22;;;;;;;;;;;;;;;16.94;53.87;97433.09;30001;983;1880;-58
2022/07/06 01:27:53;;;;;;;;;;;;;;;16.95;53.69;97431.16;30001;983;1875;-57
2022/07/06 01:28:24;;;;;;;;;;;;;;;16.95;53.78;97423.75;30001;983;1880;-57
2022/07/06 01:28:55;;;;;;;;;;;;;;;16.96;53.47;97422.63;30001;987;1875;-58
2022/07/06 01:29:26;;;;;;;;;;;;;;;16.99;53.34;97427.44;30001;983;1867;-63
2022/07/06 01:30:00;;;;;;;;;;;;;;;17.04;52.85;97426.47;30001;983;1867;-58
2022/07/06 01:30:35;;;;;;;;;;;;;;;17.03;52.48;97411.16;30001;982;1880;-58
2022/07/06 01:31:05;;;;;;;;;;;;;;;17.04;52.55;97419.06;30001;982;1876;-59
2022/07/06 01:31:45;;;;;;;;;;;;;;;17.04;52.81;97416.31;30001;982;1880;-58
2022/07/06 01:32:16;;;;;;;;;;;;;;;17.02;53.21;97420.50;30001;982;1876;-58
2022/07/06 01:32:47;;;;;;;;;;;;;;;17.03;52.97;97422.13;30001;982;1881;-56
2022/07/06 01:33:18;;;;;;;;;;;;;;;17.04;53.06;97423.72;30001;982;1876;-58
2022/07/06 01:33:49;;;;;;;;;;;;;;;17.02;52.86;97415.81;30001;983;1879;-57
2022/07/06 01:34:20;;;;;;;;;;;;;;;17.02;53.10;97424.03;30001;972;1894;-60
2022/07/06 01:34:51;;;;;;;;;;;;;;;17.02;52.78;97420.50;30001;983;1866;-59
2022/07/06 01:35:23;;;;;;;;;;;;;;;17.01;52.86;97422.44;30001;983;1867;-57
2022/07/06 01:35:54;;;;;;;;;;;;;;;17.01;52.85;97416.16;30001;983;1880;-59
2022/07/06 01:36:25;;;;;;;;;;;;;;;17.01;53.09;97418.88;30001;983;1875;-58
2022/07/06 01:36:56;;;;;;;;;;;;;;;16.99;52.99;97416.47;30001;983;1880;-58
2022/07/06 01:37:27;;;;;;;;;;;;;;;17.00;52.59;97417.28;30001;983;1876;-57
2022/07/06 01:37:58;;;;;;;;;;;;;;;17.00;52.88;97417.28;30001;982;1881;-57
2022/07/06 01:38:29;;;;;;;;;;;;;;;17.00;52.92;97420.00;30001;986;1876;-58
2022/07/06 01:39:00;;;;;;;;;;;;;;;17.01;52.62;97419.69;30001;982;1880;-58
2022/07/06 01:39:30;;;;;;;;;;;;;;;17.06;52.53;97416.00;30001;982;1876;-57
2022/07/06 01:40:07;;;;;;;;;;;;;;;17.07;51.88;97412.13;30001;982;1867;-57
2022/07/06 01:40:37;;;;;;;;;;;;;;;17.15;51.63;97419.56;30001;982;1867;-59
2022/07/06 01:41:09;;;;;;;;;;;;;;;17.15;51.94;97408.59;30001;983;1879;-57
2022/07/06 01:41:41;;;;;;;;;;;;;;;17.15;52.01;97419.56;30001;983;1875;-58
2022/07/06 01:42:12;;;;;;;;;;;;;;;17.13;51.83;97416.31;30001;983;1866;-57
2022/07/06 01:42:42;;;;;;;;;;;;;;;17.11;51.70;97417.78;30001;983;1866;-58
2022/07/06 01:43:15;;;;;;;;;;;;;;;17.06;52.42;97421.47;30001;983;1880;-58
2022/07/06 01:43:46;;;;;;;;;;;;;;;17.04;52.35;97413.56;30001;983;1875;-57
2022/07/06 01:44:17;;;;;;;;;;;;;;;17.01;52.90;97416.94;30001;983;1880;-58
2022/07/06 01:44:48;;;;;;;;;;;;;;;17.00;52.62;97420.00;30001;983;1876;-56
2022/07/06 01:45:22;;;;;;;;;;;;;;;16.99;52.39;97421.94;30001;982;1880;-57
2022/07/06 01:45:54;;;;;;;;;;;;;;;16.98;52.22;97414.06;30001;982;1875;-58
2022/07/06 01:46:25;;;;;;;;;;;;;;;16.97;52.41;97417.94;30001;982;1880;-59
2022/07/06 01:46:55;;;;;;;;;;;;;;;16.94;52.56;97413.91;30001;982;1876;-59
2022/07/06 01:47:26;;;;;;;;;;;;;;;16.93;52.22;97422.44;30001;982;1867;-57
2022/07/06 01:47:57;;;;;;;;;;;;;;;16.91;52.28;97413.75;30001;982;1867;-58
2022/07/06 01:48:28;;;;;;;;;;;;;;;16.88;52.26;97414.38;30001;982;1880;-66
2022/07/06 01:48:59;;;;;;;;;;;;;;;16.93;52.41;97416.97;30001;983;1875;-57
2022/07/06 01:49:30;;;;;;;;;;;;;;;16.93;52.44;97411.47;30001;983;1879;-58
2022/07/06 01:50:02;;;;;;;;;;;;;;;16.93;52.41;97419.72;30001;983;1875;-57
2022/07/06 01:50:33;;;;;;;;;;;;;;;16.90;52.89;97412.13;30001;983;1879;-58
2022/07/06 01:51:04;;;;;;;;;;;;;;;16.87;53.47;97418.25;30001;983;1875;-57
2022/07/06 01:51:35;;;;;;;;;;;;;;;16.83;53.08;97417.25;30001;983;1880;-57
2022/07/06 01:52:06;;;;;;;;;;;;;;;16.81;53.21;97419.53;30001;983;1862;-59
2022/07/06 01:52:38;;;;;;;;;;;;;;;16.79;52.75;97410.81;30001;983;1871;-57
2022/07/06 01:53:09;;;;;;;;;;;;;;;16.80;52.73;97418.72;30001;982;1876;-58
2022/07/06 01:53:40;;;;;;;;;;;;;;;16.81;52.87;97412.09;30001;982;1880;-57
2022/07/06 01:54:10;;;;;;;;;;;;;;;16.83;52.47;97417.25;30001;982;1876;-57
2022/07/06 01:54:41;;;;;;;;;;;;;;;16.81;52.74;97416.78;30001;982;1880;-55
2022/07/06 01:55:12;;;;;;;;;;;;;;;16.79;52.73;97417.09;30001;982;1876;-58
2022/07/06 01:55:43;;;;;;;;;;;;;;;16.79;52.47;97413.56;30001;983;1866;-57
2022/07/06 01:56:15;;;;;;;;;;;;;;;16.76;52.90;97412.25;30001;983;1866;-59
2022/07/06 01:56:45;;;;;;;;;;;;;;;16.73;52.81;97412.91;30001;983;1880;-58
2022/07/06 01:57:16;;;;;;;;;;;;;;;16.72;53.19;97417.56;30001;983;1862;-58
2022/07/06 01:57:47;;;;;;;;;;;;;;;16.69;52.76;97412.72;30001;983;1871;-58
2022/07/06 01:58:19;;;;;;;;;;;;;;;16.69;52.90;97418.19;30001;983;1875;-57
2022/07/06 01:58:50;;;;;;;;;;;;;;;16.65;53.26;97411.75;30001;983;1880;-58
2022/07/06 01:59:23;;;;;;;;;;;;;;;16.64;53.42;97412.88;30001;983;1876;-58
2022/07/06 01:59:54;;;;;;;;;;;;;;;16.62;53.79;97423.34;30001;983;1880;-57
2022/07/06 02:00:24;;;;;;;;;;;;;;;16.66;52.80;97416.09;30001;982;1876;-58
2022/07/06 02:00:55;;;;;;;;;;;;;;;16.69;53.01;97417.41;30001;982;1867;-60
2022/07/06 02:01:26;;;;;;;;;;;;;;;16.77;52.60;97421.28;30001;982;1867;-60
2022/07/06 02:01:57;;;;;;;;;;;;;;;16.84;51.90;97410.66;30001;982;1880;-57
2022/07/06 02:02:28;;;;;;;;;;;;;;;16.82;51.90;97418.41;30001;982;1876;-58
2022/07/06 02:02:59;;;;;;;;;;;;;;;16.79;52.06;97419.03;30001;983;1879;-58
2022/07/06 02:03:30;;;;;;;;;;;;;;;16.75;52.27;97421.59;30001;983;1875;-58
2022/07/06 02:04:00;;;;;;;;;;;;;;;16.71;53.20;97424.16;30001;983;1879;-57
2022/07/06 02:04:31;;;;;;;;;;;;;;;16.67;52.77;97416.91;30001;973;1897;-57
2022/07/06 02:05:02;;;;;;;;;;;;;;;16.66;52.94;97424.31;30001;983;1880;-57
2022/07/06 02:05:33;;;;;;;;;;;;;;;16.64;52.85;97425.75;30001;973;1881;-58
2022/07/06 02:06:05;;;;;;;;;;;;;;;16.62;52.63;97428.81;30001;983;1871;-58
2022/07/06 02:06:36;;;;;;;;;;;;;;;16.58;53.22;97433.31;30001;983;1875;-58
2022/07/06 02:07:07;;;;;;;;;;;;;;;16.55;53.76;97428.47;30001;983;1788;-57
2022/07/06 02:07:38;;;;;;;;;;;;;;;16.53;53.30;97424.44;30001;983;1876;-59
2022/07/06 02:08:09;;;;;;;;;;;;;;;16.55;53.32;97428.47;30001;982;1867;-57
2022/07/06 02:08:41;;;;;;;;;;;;;;;16.53;54.03;97427.16;30001;982;1867;-57
2022/07/06 02:09:14;;;;;;;;;;;;;;;16.52;54.01;97434.59;30001;982;1880;-57
2022/07/06 02:09:45;;;;;;;;;;;;;;;16.49;54.23;97429.75;30001;982;1877;-58
2022/07/06 02:10:15;;;;;;;;;;;;;;;16.45;53.77;97428.75;30001;982;1880;-58
2022/07/06 02:10:46;;;;;;;;;;;;;;;16.47;53.70;97431.97;30001;983;1876;-57
2022/07/06 02:11:17;;;;;;;;;;;;;;;16.47;53.74;97426.50;30001;983;1880;-58
2022/07/06 02:11:48;;;;;;;;;;;;;;;16.53;53.23;97427.97;30001;983;1875;-59
2022/07/06 02:12:20;;;;;;;;;;;;;;;16.58;52.82;97427.84;30001;983;1880;-58
2022/07/06 02:12:52;;;;;;;;;;;;;;;16.58;53.38;97427.03;30001;983;1875;-58
2022/07/06 02:13:24;;;;;;;;;;;;;;;16.55;53.38;97433.94;30001;983;1867;-59
2022/07/06 02:13:55;;;;;;;;;;;;;;;16.54;53.41;97426.03;30001;983;1867;-57
2022/07/06 02:14:28;;;;;;;;;;;;;;;16.51;53.29;97435.72;30001;983;1880;-58
2022/07/06 02:15:01;;;;;;;;;;;;;;;16.48;53.55;97422.66;30001;983;1876;-57
2022/07/06 02:15:35;;;;;;;;;;;;;;;16.46;53.34;97430.38;30001;982;1881;-57
2022/07/06 02:16:06;;;;;;;;;;;;;;;16.46;53.48;97429.56;30001;982;1876;-58
2022/07/06 02:16:36;;;;;;;;;;;;;;;16.43;53.66;97436.47;30001;982;1880;-58
2022/07/06 02:17:07;;;;;;;;;;;;;;;16.39;54.53;97440.97;30001;982;1876;-59
2022/07/06 02:17:38;;;;;;;;;;;;;;;16.36;54.53;97436.12;30001;982;1880;-57
2022/07/06 02:18:09;;;;;;;;;;;;;;;16.35;54.23;97434.50;30001;965;1880;-58
2022/07/06 02:18:40;;;;;;;;;;;;;;;16.33;54.46;97432.09;30001;983;1871;-59
2022/07/06 02:19:12;;;;;;;;;;;;;;;16.31;54.20;97434.34;30001;983;1875;-58
2022/07/06 02:19:42;;;;;;;;;;;;;;;16.30;55.14;97437.38;30001;983;1879;-58
2022/07/06 02:20:13;;;;;;;;;;;;;;;16.30;54.48;97434.66;30001;983;1875;-58
2022/07/06 02:20:44;;;;;;;;;;;;;;;16.29;54.35;97438.50;30001;983;1867;-58
2022/07/06 02:21:15;;;;;;;;;;;;;;;16.29;54.95;97433.03;30001;983;1867;-58
2022/07/06 02:21:50;;;;;;;;;;;;;;;16.26;55.09;97442.72;30001;983;1867;-59
2022/07/06 02:22:21;;;;;;;;;;;;;;;16.23;54.75;97440.59;30001;983;1867;-59
2022/07/06 02:22:52;;;;;;;;;;;;;;;16.22;54.88;97432.72;30001;983;1880;-59
2022/07/06 02:23:22;;;;;;;;;;;;;;;16.18;54.78;97428.97;30001;982;1863;-58
2022/07/06 02:23:53;;;;;;;;;;;;;;;16.17;54.95;97432.84;30001;982;1871;-58
2022/07/06 02:24:24;;;;;;;;;;;;;;;16.14;55.55;97436.22;30001;982;1876;-58
2022/07/06 02:24:55;;;;;;;;;;;;;;;16.11;55.45;97440.37;30001;982;1867;-56
2022/07/06 02:25:26;;;;;;;;;;;;;;;16.12;54.90;97433.78;30001;982;1867;-59
2022/07/06 02:25:57;;;;;;;;;;;;;;;16.12;55.06;97436.53;30001;983;1879;-58
2022/07/06 02:26:29;;;;;;;;;;;;;;;16.12;55.27;97436.53;30001;983;1875;-56
2022/07/06 02:27:00;;;;;;;;;;;;;;;16.13;55.47;97438.13;30001;983;1866;-60
2022/07/06 02:27:31;;;;;;;;;;;;;;;16.16;55.22;97442.19;30001;983;1867;-59
2022/07/06 02:28:03;;;;;;;;;;;;;;;16.16;55.24;97437.50;30001;983;1880;-55
2022/07/06 02:28:34;;;;;;;;;;;;;;;16.20;54.66;97438.50;30001;983;1875;-56
2022/07/06 02:29:05;;;;;;;;;;;;;;;16.22;54.75;97427.22;30001;983;1880;-58
2022/07/06 02:29:35;;;;;;;;;;;;;;;16.21;54.41;97429.16;30001;983;1876;-58
2022/07/06 02:30:08;;;;;;;;;;;;;;;16.20;54.62;97440.44;30001;982;1867;-58
2022/07/06 02:30:39;;;;;;;;;;;;;;;16.16;55.62;97442.19;30001;982;1867;-57
2022/07/06 02:31:12;;;;;;;;;;;;;;;16.11;55.67;97436.84;30001;982;1880;-59
2022/07/06 02:31:43;;;;;;;;;;;;;;;16.08;55.48;97435.53;30001;982;1876;-58
2022/07/06 02:32:15;;;;;;;;;;;;;;;16.07;56.87;97440.19;30001;969;1904;-57
2022/07/06 02:32:46;;;;;;;;;;;;;;;16.06;55.76;97444.06;30001;982;1876;-59
2022/07/06 02:33:17;;;;;;;;;;;;;;;16.04;55.74;97440.81;30001;983;1879;-57
2022/07/06 02:33:48;;;;;;;;;;;;;;;16.04;55.66;97440.81;30001;983;1771;-58
2022/07/06 02:34:20;;;;;;;;;;;;;;;16.04;56.02;97440.03;30001;983;1880;-58
2022/07/06 02:34:50;;;;;;;;;;;;;;;16.03;55.67;97441.16;30001;983;1876;-58
2022/07/06 02:35:21;;;;;;;;;;;;;;;16.02;55.72;97447.75;30001;983;1867;-60
2022/07/06 02:35:52;;;;;;;;;;;;;;;15.99;56.08;97443.69;30001;983;1867;-57
2022/07/06 02:36:23;;;;;;;;;;;;;;;15.97;56.23;97450.59;30001;983;1880;-58
2022/07/06 02:36:54;;;;;;;;;;;;;;;15.96;55.89;97438.84;30001;983;1876;-59
2022/07/06 02:37:25;;;;;;;;;;;;;;;15.96;56.61;97449.00;30001;963;1899;-57
2022/07/06 02:37:59;;;;;;;;;;;;;;;15.94;57.17;97454.00;30001;982;1876;-58
2022/07/06 02:38:30;;;;;;;;;;;;;;;15.93;56.84;97450.44;30001;982;1881;-59
2022/07/06 02:39:02;;;;;;;;;;;;;;;15.95;56.12;97450.91;30001;982;1876;-56
2022/07/06 02:39:34;;;;;;;;;;;;;;;15.95;55.65;97447.37;30001;982;1867;-58
2022/07/06 02:40:09;;;;;;;;;;;;;;;15.94;56.48;97445.78;30001;982;1867;-56
2022/07/06 02:40:40;;;;;;;;;;;;;;;15.93;56.02;97450.44;30001;982;1880;-57
2022/07/06 02:41:11;;;;;;;;;;;;;;;15.93;55.97;97444.97;30001;983;1875;-58
2022/07/06 02:41:44;;;;;;;;;;;;;;;15.94;56.06;97449.31;30001;983;1880;-57
2022/07/06 02:42:15;;;;;;;;;;;;;;;15.98;56.23;97450.28;30001;983;1875;-59
2022/07/06 02:42:46;;;;;;;;;;;;;;;16.00;55.97;97456.25;30001;983;1880;-58
2022/07/06 02:43:16;;;;;;;;;;;;;;;16.00;55.51;97452.72;30001;983;1875;-57
2022/07/06 02:43:47;;;;;;;;;;;;;;;15.99;55.74;97440.16;30001;983;1880;-58
2022/07/06 02:44:18;;;;;;;;;;;;;;;16.00;55.81;97450.78;30001;983;1862;-58
2022/07/06 02:44:49;;;;;;;;;;;;;;;15.98;55.46;97449.47;30001;983;1871;-57
2022/07/06 02:45:20;;;;;;;;;;;;;;;15.98;56.04;97453.03;30001;982;1876;-58
2022/07/06 02:45:51;;;;;;;;;;;;;;;16.00;56.32;97450.78;30001;982;1880;-56
2022/07/06 02:46:22;;;;;;;;;;;;;;;16.04;55.56;97457.25;30001;982;1876;-56
2022/07/06 02:46:53;;;;;;;;;;;;;;;16.05;55.89;97458.88;30001;982;1880;-60
2022/07/06 02:47:26;;;;;;;;;;;;;;;16.11;55.15;97445.84;30001;982;1876;-54
2022/07/06 02:47:57;;;;;;;;;;;;;;;16.13;55.02;97451.03;30001;982;1880;-56
2022/07/06 02:48:30;;;;;;;;;;;;;;;16.14;54.98;97455.37;30001;983;1875;-57
2022/07/06 02:49:01;;;;;;;;;;;;;;;16.14;54.95;97455.37;30001;983;1866;-57
2022/07/06 02:49:35;;;;;;;;;;;;;;;16.21;54.86;97456.53;30001;983;1866;-60